sensor_id;sensor_type;location;lat;lon;timestamp;pressure;altitude;pressure_sealevel;temperature;humidity
7748;BME280;3918;42.564;23.164;2023-04-29T04:01:05;-11650.84;;;-142.29;69.97
7748;BME280;3918;42.564;23.164;2023-04-29T04:03:32;-11650.84;;;-142.29;68.90
7748;BME280;3918;42.564;23.164;2023-04-29T04:05:59;-11650.84;;;-142.29;65.94
7748;BME280;3918;42.564;23.164;2023-04-29T04:08:26;-11650.84;;;-142.29;63.93
7748;BME280;3918;42.564;23.164;2023-04-29T04:10:52;-11650.84;;;-142.29;63.45
7748;BME280;3918;42.564;23.164;2023-04-29T04:13:19;-11650.84;;;-142.29;62.90
7748;BME280;3918;42.564;23.164;2023-04-29T04:15:48;-11650.84;;;-142.29;61.97
7748;BME280;3918;42.564;23.164;2023-04-29T04:18:17;-11650.84;;;-142.29;60.67
7748;BME280;3918;42.564;23.164;2023-04-29T04:20:44;-11650.84;;;-142.29;61.23
7748;BME280;3918;42.564;23.164;2023-04-29T04:23:11;-11650.84;;;-142.29;60.08
7748;BME280;3918;42.564;23.164;2023-04-29T04:25:43;-11650.84;;;-142.29;60.72
7748;BME280;3918;42.564;23.164;2023-04-29T04:28:10;-11650.84;;;-142.29;60.55
7748;BME280;3918;42.564;23.164;2023-04-29T04:30:37;-11650.84;;;-142.29;59.96
7748;BME280;3918;42.564;23.164;2023-04-29T04:33:04;-11650.84;;;-142.29;59.35
7748;BME280;3918;42.564;23.164;2023-04-29T04:35:32;-11650.84;;;-142.29;59.55
7748;BME280;3918;42.564;23.164;2023-04-29T04:37:59;-11650.84;;;-142.29;58.12
7748;BME280;3918;42.564;23.164;2023-04-29T04:40:26;-11650.84;;;-142.29;57.78
7748;BME280;3918;42.564;23.164;2023-04-29T04:42:53;-11650.84;;;-142.29;57.62
7748;BME280;3918;42.564;23.164;2023-04-29T04:45:20;-11650.84;;;-142.29;57.56
7748;BME280;3918;42.564;23.164;2023-04-29T04:47:47;-11650.84;;;-142.29;56.50
7748;BME280;3918;42.564;23.164;2023-04-29T04:50:14;-11650.84;;;-142.29;56.16
7748;BME280;3918;42.564;23.164;2023-04-29T04:52:42;-11650.84;;;-142.29;56.45
7748;BME280;3918;42.564;23.164;2023-04-29T04:55:10;-11650.84;;;-142.29;56.06
7748;BME280;3918;42.564;23.164;2023-04-29T04:57:37;-11650.84;;;-142.29;55.31
7748;BME280;3918;42.564;23.164;2023-04-29T05:00:05;-11650.84;;;-142.29;54.74
7748;BME280;3918;42.564;23.164;2023-04-29T05:02:32;-11650.84;;;-142.29;54.57
7748;BME280;3918;42.564;23.164;2023-04-29T05:04:58;-11650.84;;;-142.29;54.13
7748;BME280;3918;42.564;23.164;2023-04-29T05:07:25;-11650.84;;;-142.29;53.61
7748;BME280;3918;42.564;23.164;2023-04-29T05:09:53;-11650.84;;;-142.29;52.49
7748;BME280;3918;42.564;23.164;2023-04-29T05:12:20;-11650.84;;;-142.29;52.32
7748;BME280;3918;42.564;23.164;2023-04-29T05:14:51;-11650.84;;;-142.29;52.13
7748;BME280;3918;42.564;23.164;2023-04-29T05:17:18;-11650.84;;;-142.29;51.68
7748;BME280;3918;42.564;23.164;2023-04-29T05:19:45;-11650.84;;;-142.29;52.23
7748;BME280;3918;42.564;23.164;2023-04-29T05:22:12;-11650.84;;;-142.29;50.63
7748;BME280;3918;42.564;23.164;2023-04-29T05:24:39;-11650.84;;;-142.29;48.73
7748;BME280;3918;42.564;23.164;2023-04-29T05:27:07;-11650.84;;;-142.29;47.66
7748;BME280;3918;42.564;23.164;2023-04-29T05:29:33;-11650.84;;;-142.29;46.94
7748;BME280;3918;42.564;23.164;2023-04-29T05:32:01;-11650.84;;;-142.29;47.14
7748;BME280;3918;42.564;23.164;2023-04-29T05:34:28;-11650.84;;;-142.29;46.24
7748;BME280;3918;42.564;23.164;2023-04-29T05:36:55;-11650.84;;;-142.29;46.28
7748;BME280;3918;42.564;23.164;2023-04-29T05:39:22;-11650.84;;;-142.29;45.19
7748;BME280;3918;42.564;23.164;2023-04-29T05:41:49;-11650.84;;;-142.29;45.79
7748;BME280;3918;42.564;23.164;2023-04-29T05:44:17;-11650.84;;;-142.29;45.30
7748;BME280;3918;42.564;23.164;2023-04-29T05:46:44;-11650.84;;;-142.29;45.42
7748;BME280;3918;42.564;23.164;2023-04-29T05:49:13;-11650.84;;;-142.29;45.95
7748;BME280;3918;42.564;23.164;2023-04-29T05:51:40;-11650.84;;;-142.29;46.09
7748;BME280;3918;42.564;23.164;2023-04-29T05:54:07;-11650.84;;;-142.29;46.24
7748;BME280;3918;42.564;23.164;2023-04-29T05:56:33;-11650.84;;;-142.29;45.08
7748;BME280;3918;42.564;23.164;2023-04-29T05:59:00;-11650.84;;;-142.29;45.48
7748;BME280;3918;42.564;23.164;2023-04-29T06:01:28;-11650.84;;;-142.29;44.51
7748;BME280;3918;42.564;23.164;2023-04-29T06:03:55;-11650.84;;;-142.29;43.56
7748;BME280;3918;42.564;23.164;2023-04-29T06:06:22;-11650.84;;;-142.29;41.56
7748;BME280;3918;42.564;23.164;2023-04-29T06:08:50;-11650.84;;;-142.29;40.13
7748;BME280;3918;42.564;23.164;2023-04-29T06:11:17;-11650.84;;;-142.29;37.19
7748;BME280;3918;42.564;23.164;2023-04-29T06:13:44;-11650.84;;;-142.29;37.07
7748;BME280;3918;42.564;23.164;2023-04-29T06:16:11;-11650.84;;;-142.29;36.00
7748;BME280;3918;42.564;23.164;2023-04-29T06:18:39;-11650.84;;;-142.29;36.19
7748;BME280;3918;42.564;23.164;2023-04-29T06:21:06;-11650.84;;;-142.29;35.57
7748;BME280;3918;42.564;23.164;2023-04-29T06:23:33;-11650.84;;;-142.29;35.24
7748;BME280;3918;42.564;23.164;2023-04-29T06:26:00;-11650.84;;;-142.29;34.36
7748;BME280;3918;42.564;23.164;2023-04-29T06:28:27;-11650.84;;;-142.29;33.73
7748;BME280;3918;42.564;23.164;2023-04-29T06:30:54;-11650.84;;;-142.29;32.99
7748;BME280;3918;42.564;23.164;2023-04-29T06:33:21;-11650.84;;;-142.29;32.39
7748;BME280;3918;42.564;23.164;2023-04-29T06:35:49;-11650.84;;;-142.29;31.07
7748;BME280;3918;42.564;23.164;2023-04-29T06:38:16;-11650.84;;;-142.29;30.47
7748;BME280;3918;42.564;23.164;2023-04-29T06:40:43;-11650.84;;;-142.29;29.93
7748;BME280;3918;42.564;23.164;2023-04-29T06:43:10;-11650.84;;;-142.29;30.31
7748;BME280;3918;42.564;23.164;2023-04-29T06:45:36;-11650.84;;;-142.29;29.53
7748;BME280;3918;42.564;23.164;2023-04-29T06:48:04;-11650.84;;;-142.29;29.12
7748;BME280;3918;42.564;23.164;2023-04-29T06:50:31;-11650.84;;;-142.29;29.31
7748;BME280;3918;42.564;23.164;2023-04-29T06:52:59;-11650.84;;;-142.29;29.11
7748;BME280;3918;42.564;23.164;2023-04-29T06:55:26;-11650.84;;;-142.29;27.87
7748;BME280;3918;42.564;23.164;2023-04-29T06:57:53;-11650.84;;;-142.29;27.57
7748;BME280;3918;42.564;23.164;2023-04-29T07:00:20;-11650.84;;;-142.29;26.99
7748;BME280;3918;42.564;23.164;2023-04-29T07:02:47;-11650.84;;;-142.29;26.35
7748;BME280;3918;42.564;23.164;2023-04-29T07:05:14;-11650.84;;;-142.29;27.19
7748;BME280;3918;42.564;23.164;2023-04-29T07:07:41;-11650.84;;;-142.29;28.42
7748;BME280;3918;42.564;23.164;2023-04-29T07:10:09;-11650.84;;;-142.29;28.31
7748;BME280;3918;42.564;23.164;2023-04-29T07:12:36;-11650.84;;;-142.29;27.54
7748;BME280;3918;42.564;23.164;2023-04-29T07:15:04;-11650.84;;;-142.29;27.73
7748;BME280;3918;42.564;23.164;2023-04-29T07:17:31;-11650.84;;;-142.29;27.28
7748;BME280;3918;42.564;23.164;2023-04-29T07:19:58;-11650.84;;;-142.29;26.51
7748;BME280;3918;42.564;23.164;2023-04-29T07:22:24;-11650.84;;;-142.29;27.29
7748;BME280;3918;42.564;23.164;2023-04-29T07:24:52;-11650.84;;;-142.29;26.56
7748;BME280;3918;42.564;23.164;2023-04-29T07:27:20;-11650.84;;;-142.29;26.83
7748;BME280;3918;42.564;23.164;2023-04-29T07:29:47;-11650.84;;;-142.29;26.46
7748;BME280;3918;42.564;23.164;2023-04-29T07:32:14;-11650.84;;;-142.29;25.42
7748;BME280;3918;42.564;23.164;2023-04-29T07:34:41;-11650.84;;;-142.29;25.93
7748;BME280;3918;42.564;23.164;2023-04-29T07:37:08;-11650.84;;;-142.29;26.15
7748;BME280;3918;42.564;23.164;2023-04-29T07:39:35;-11650.84;;;-142.29;26.35
7748;BME280;3918;42.564;23.164;2023-04-29T07:42:02;-11650.84;;;-142.29;25.81
7748;BME280;3918;42.564;23.164;2023-04-29T07:44:30;-11650.84;;;-142.29;25.54
7748;BME280;3918;42.564;23.164;2023-04-29T07:46:57;-11650.84;;;-142.29;26.25
7748;BME280;3918;42.564;23.164;2023-04-29T07:49:23;-11650.84;;;-142.29;27.23
7748;BME280;3918;42.564;23.164;2023-04-29T07:51:51;-11650.84;;;-142.29;27.06
7748;BME280;3918;42.564;23.164;2023-04-29T07:54:18;-11650.84;;;-142.29;28.90
7748;BME280;3918;42.564;23.164;2023-04-29T07:56:45;-11650.84;;;-142.29;28.92
7748;BME280;3918;42.564;23.164;2023-04-29T07:59:12;-11650.84;;;-142.29;28.93
7748;BME280;3918;42.564;23.164;2023-04-29T08:01:41;-11650.84;;;-142.29;29.64
7748;BME280;3918;42.564;23.164;2023-04-29T08:04:08;-11650.84;;;-142.29;27.86
7748;BME280;3918;42.564;23.164;2023-04-29T08:06:34;-11650.84;;;-142.29;28.35
7748;BME280;3918;42.564;23.164;2023-04-29T08:09:01;-11650.84;;;-142.29;29.30
7748;BME280;3918;42.564;23.164;2023-04-29T08:11:28;-11650.84;;;-142.29;29.73
7748;BME280;3918;42.564;23.164;2023-04-29T08:13:55;-11650.84;;;-142.29;29.14
7748;BME280;3918;42.564;23.164;2023-04-29T08:16:24;-11650.84;;;-142.29;27.95
7748;BME280;3918;42.564;23.164;2023-04-29T08:18:52;-11650.84;;;-142.29;30.37
7748;BME280;3918;42.564;23.164;2023-04-29T08:21:20;-11650.84;;;-142.29;30.41
7748;BME280;3918;42.564;23.164;2023-04-29T08:23:47;-11650.84;;;-142.29;30.44
7748;BME280;3918;42.564;23.164;2023-04-29T08:26:14;-11650.84;;;-142.29;30.44
7748;BME280;3918;42.564;23.164;2023-04-29T08:28:41;-11650.84;;;-142.29;29.53
7748;BME280;3918;42.564;23.164;2023-04-29T08:31:15;-11650.84;;;-142.29;32.23
7748;BME280;3918;42.564;23.164;2023-04-29T08:33:42;-11650.84;;;-142.29;31.40
7748;BME280;3918;42.564;23.164;2023-04-29T08:36:11;-11650.84;;;-142.29;30.53
7748;BME280;3918;42.564;23.164;2023-04-29T08:38:38;-11650.84;;;-142.29;31.56
7748;BME280;3918;42.564;23.164;2023-04-29T08:41:06;-11650.84;;;-142.29;30.26
7748;BME280;3918;42.564;23.164;2023-04-29T08:43:34;-11650.84;;;-142.29;30.73
7748;BME280;3918;42.564;23.164;2023-04-29T08:46:02;-11650.84;;;-142.29;31.68
7748;BME280;3918;42.564;23.164;2023-04-29T08:48:29;-11650.84;;;-142.29;31.93
7748;BME280;3918;42.564;23.164;2023-04-29T08:50:56;-11650.84;;;-142.29;31.67
7748;BME280;3918;42.564;23.164;2023-04-29T08:53:25;-11650.84;;;-142.29;32.34
7748;BME280;3918;42.564;23.164;2023-04-29T08:55:53;-11650.84;;;-142.29;32.65
7748;BME280;3918;42.564;23.164;2023-04-29T08:58:21;-11650.84;;;-142.29;32.26
7748;BME280;3918;42.564;23.164;2023-04-29T09:00:48;-11650.84;;;-142.29;32.11
7748;BME280;3918;42.564;23.164;2023-04-29T09:03:19;-11650.84;;;-142.29;32.64
7748;BME280;3918;42.564;23.164;2023-04-29T09:05:52;-11650.84;;;-142.29;30.58
7748;BME280;3918;42.564;23.164;2023-04-29T09:08:20;-11650.84;;;-142.29;30.80
7748;BME280;3918;42.564;23.164;2023-04-29T09:10:50;-11650.84;;;-142.29;29.74
7748;BME280;3918;42.564;23.164;2023-04-29T09:13:24;-11650.84;;;-142.29;31.51
7748;BME280;3918;42.564;23.164;2023-04-29T09:15:52;-11650.84;;;-142.29;30.12
7748;BME280;3918;42.564;23.164;2023-04-29T09:18:40;-11650.84;;;-142.29;30.87
7748;BME280;3918;42.564;23.164;2023-04-29T09:21:12;-11650.84;;;-142.29;31.71
7748;BME280;3918;42.564;23.164;2023-04-29T09:23:39;-11650.84;;;-142.29;30.06
7748;BME280;3918;42.564;23.164;2023-04-29T09:26:07;-11650.84;;;-142.29;29.99
7748;BME280;3918;42.564;23.164;2023-04-29T09:28:34;-11650.84;;;-142.29;30.47
7748;BME280;3918;42.564;23.164;2023-04-29T09:31:01;-11650.84;;;-142.29;29.42
7748;BME280;3918;42.564;23.164;2023-04-29T09:33:49;-11650.84;;;-142.29;28.69
7748;BME280;3918;42.564;23.164;2023-04-29T09:36:39;-11650.84;;;-142.29;30.48
7748;BME280;3918;42.564;23.164;2023-04-29T09:39:07;-11650.84;;;-142.29;29.33
7748;BME280;3918;42.564;23.164;2023-04-29T09:41:59;-11650.84;;;-142.29;28.82
7748;BME280;3918;42.564;23.164;2023-04-29T09:44:28;-11650.84;;;-142.29;29.63
7748;BME280;3918;42.564;23.164;2023-04-29T09:46:55;-11650.84;;;-142.29;29.87
7748;BME280;3918;42.564;23.164;2023-04-29T09:49:23;-11650.84;;;-142.29;27.82
7748;BME280;3918;42.564;23.164;2023-04-29T09:51:55;-11650.84;;;-142.29;29.29
7748;BME280;3918;42.564;23.164;2023-04-29T09:54:23;-11650.84;;;-142.29;29.53
7748;BME280;3918;42.564;23.164;2023-04-29T09:56:53;-11650.84;;;-142.29;29.74
7748;BME280;3918;42.564;23.164;2023-04-29T09:59:22;-11650.84;;;-142.29;29.17
7748;BME280;3918;42.564;23.164;2023-04-29T10:01:50;-11650.84;;;-142.29;27.75
7748;BME280;3918;42.564;23.164;2023-04-29T10:04:18;-11650.84;;;-142.29;27.55
7748;BME280;3918;42.564;23.164;2023-04-29T10:06:48;-11650.84;;;-142.29;28.21
7748;BME280;3918;42.564;23.164;2023-04-29T10:09:16;-11650.84;;;-142.29;28.71
7748;BME280;3918;42.564;23.164;2023-04-29T10:11:43;-11650.84;;;-142.29;28.88
7748;BME280;3918;42.564;23.164;2023-04-29T10:14:12;-11650.84;;;-142.29;28.96
7748;BME280;3918;42.564;23.164;2023-04-29T10:16:46;-11650.84;;;-142.29;30.23
7748;BME280;3918;42.564;23.164;2023-04-29T10:19:18;-11650.84;;;-142.29;30.24
7748;BME280;3918;42.564;23.164;2023-04-29T10:21:49;-11650.84;;;-142.29;29.63
7748;BME280;3918;42.564;23.164;2023-04-29T10:24:20;-11650.84;;;-142.29;29.66
7748;BME280;3918;42.564;23.164;2023-04-29T10:26:50;-11650.84;;;-142.29;31.12
7748;BME280;3918;42.564;23.164;2023-04-29T10:29:17;-11650.84;;;-142.29;31.04
7748;BME280;3918;42.564;23.164;2023-04-29T10:31:47;-11650.84;;;-142.29;31.61
7748;BME280;3918;42.564;23.164;2023-04-29T10:34:18;-11650.84;;;-142.29;31.24
7748;BME280;3918;42.564;23.164;2023-04-29T10:36:46;-11650.84;;;-142.29;30.66
7748;BME280;3918;42.564;23.164;2023-04-29T10:39:20;-11650.84;;;-142.29;30.15
7748;BME280;3918;42.564;23.164;2023-04-29T10:41:50;-11650.84;;;-142.29;31.02
7748;BME280;3918;42.564;23.164;2023-04-29T10:44:17;-11650.84;;;-142.29;31.66
7748;BME280;3918;42.564;23.164;2023-04-29T10:46:45;-11650.84;;;-142.29;31.56
7748;BME280;3918;42.564;23.164;2023-04-29T10:49:12;-11650.84;;;-142.29;31.13
7748;BME280;3918;42.564;23.164;2023-04-29T10:51:40;-11650.84;;;-142.29;30.96
7748;BME280;3918;42.564;23.164;2023-04-29T10:54:09;-11650.84;;;-142.29;31.42
7748;BME280;3918;42.564;23.164;2023-04-29T10:56:39;-11650.84;;;-142.29;32.64
7748;BME280;3918;42.564;23.164;2023-04-29T10:59:11;-11650.84;;;-142.29;32.56
7748;BME280;3918;42.564;23.164;2023-04-29T11:01:57;-11650.84;;;-142.29;33.04
7748;BME280;3918;42.564;23.164;2023-04-29T11:04:24;-11650.84;;;-142.29;33.89
7748;BME280;3918;42.564;23.164;2023-04-29T11:06:53;-11650.84;;;-142.29;34.27
7748;BME280;3918;42.564;23.164;2023-04-29T11:09:24;-11650.84;;;-142.29;34.84
7748;BME280;3918;42.564;23.164;2023-04-29T11:11:58;-11650.84;;;-142.29;34.43
7748;BME280;3918;42.564;23.164;2023-04-29T11:14:29;-11650.84;;;-142.29;32.78
7748;BME280;3918;42.564;23.164;2023-04-29T11:16:59;-11650.84;;;-142.29;33.48
7748;BME280;3918;42.564;23.164;2023-04-29T11:19:30;-11650.84;;;-142.29;33.50
7748;BME280;3918;42.564;23.164;2023-04-29T11:22:08;-11650.84;;;-142.29;33.48
7748;BME280;3918;42.564;23.164;2023-04-29T11:24:36;-11650.84;;;-142.29;33.90
7748;BME280;3918;42.564;23.164;2023-04-29T11:27:17;-11650.84;;;-142.29;35.20
7748;BME280;3918;42.564;23.164;2023-04-29T11:29:45;-11650.84;;;-142.29;35.19
7748;BME280;3918;42.564;23.164;2023-04-29T11:32:13;-11650.84;;;-142.29;36.11
7748;BME280;3918;42.564;23.164;2023-04-29T11:34:40;-11650.84;;;-142.29;36.08
7748;BME280;3918;42.564;23.164;2023-04-29T11:37:09;-11650.84;;;-142.29;36.41
7748;BME280;3918;42.564;23.164;2023-04-29T11:39:36;-11650.84;;;-142.29;37.69
7748;BME280;3918;42.564;23.164;2023-04-29T11:42:04;-11650.84;;;-142.29;39.38
7748;BME280;3918;42.564;23.164;2023-04-29T11:44:32;-11650.84;;;-142.29;39.80
7748;BME280;3918;42.564;23.164;2023-04-29T11:47:03;-11650.84;;;-142.29;39.60
7748;BME280;3918;42.564;23.164;2023-04-29T11:49:32;-11650.84;;;-142.29;40.12
7748;BME280;3918;42.564;23.164;2023-04-29T11:51:59;-11650.84;;;-142.29;39.88
7748;BME280;3918;42.564;23.164;2023-04-29T11:54:27;-11650.84;;;-142.29;39.85
7748;BME280;3918;42.564;23.164;2023-04-29T11:56:54;-11650.84;;;-142.29;39.67
7748;BME280;3918;42.564;23.164;2023-04-29T11:59:21;-11650.84;;;-142.29;40.73
7748;BME280;3918;42.564;23.164;2023-04-29T12:01:49;-11650.84;;;-142.29;39.81
7748;BME280;3918;42.564;23.164;2023-04-29T12:04:16;-11650.84;;;-142.29;40.01
7748;BME280;3918;42.564;23.164;2023-04-29T12:06:45;-11650.84;;;-142.29;40.95
7748;BME280;3918;42.564;23.164;2023-04-29T12:09:12;-11650.84;;;-142.29;40.89
7748;BME280;3918;42.564;23.164;2023-04-29T12:11:40;-11650.84;;;-142.29;41.44
7748;BME280;3918;42.564;23.164;2023-04-29T12:14:07;-11650.84;;;-142.29;40.69
7748;BME280;3918;42.564;23.164;2023-04-29T12:16:34;-11650.84;;;-142.29;40.84
7748;BME280;3918;42.564;23.164;2023-04-29T12:19:01;-11650.84;;;-142.29;40.25
7748;BME280;3918;42.564;23.164;2023-04-29T12:21:28;-11650.84;;;-142.29;39.51
7748;BME280;3918;42.564;23.164;2023-04-29T12:24:01;-11650.84;;;-142.29;39.96
7748;BME280;3918;42.564;23.164;2023-04-29T12:26:28;-11650.84;;;-142.29;40.13
7748;BME280;3918;42.564;23.164;2023-04-29T12:28:56;-11650.84;;;-142.29;39.75
7748;BME280;3918;42.564;23.164;2023-04-29T12:31:31;-11650.84;;;-142.29;37.23
7748;BME280;3918;42.564;23.164;2023-04-29T12:33:58;-11650.84;;;-142.29;36.68
7748;BME280;3918;42.564;23.164;2023-04-29T12:36:26;-11650.84;;;-142.29;37.32
7748;BME280;3918;42.564;23.164;2023-04-29T12:38:53;-11650.84;;;-142.29;36.89
7748;BME280;3918;42.564;23.164;2023-04-29T12:44:14;-11650.84;;;-142.29;38.74
7748;BME280;3918;42.564;23.164;2023-04-29T12:46:41;-11650.84;;;-142.29;36.65
7748;BME280;3918;42.564;23.164;2023-04-29T12:49:08;-11650.84;;;-142.29;36.84
7748;BME280;3918;42.564;23.164;2023-04-29T12:51:35;-11650.84;;;-142.29;36.86
7748;BME280;3918;42.564;23.164;2023-04-29T12:54:03;-11650.84;;;-142.29;37.82
7748;BME280;3918;42.564;23.164;2023-04-29T12:56:31;-11650.84;;;-142.29;37.00
7748;BME280;3918;42.564;23.164;2023-04-29T12:59:04;-11650.84;;;-142.29;37.20
7748;BME280;3918;42.564;23.164;2023-04-29T13:01:32;-11650.84;;;-142.29;38.10
7748;BME280;3918;42.564;23.164;2023-04-29T13:03:59;-11650.84;;;-142.29;39.44
7748;BME280;3918;42.564;23.164;2023-04-29T13:06:26;-11650.84;;;-142.29;40.01
7748;BME280;3918;42.564;23.164;2023-04-29T13:08:52;-11650.84;;;-142.29;38.58
7748;BME280;3918;42.564;23.164;2023-04-29T13:11:20;-11650.84;;;-142.29;38.95
7748;BME280;3918;42.564;23.164;2023-04-29T13:13:46;-11650.84;;;-142.29;39.95
7748;BME280;3918;42.564;23.164;2023-04-29T13:16:13;-11650.84;;;-142.29;40.91
7748;BME280;3918;42.564;23.164;2023-04-29T13:18:41;-11650.84;;;-142.29;40.37
7748;BME280;3918;42.564;23.164;2023-04-29T13:21:08;-11650.84;;;-142.29;42.51
7748;BME280;3918;42.564;23.164;2023-04-29T13:23:35;-11650.84;;;-142.29;42.80
7748;BME280;3918;42.564;23.164;2023-04-29T13:26:02;-11650.84;;;-142.29;42.03
7748;BME280;3918;42.564;23.164;2023-04-29T13:28:29;-11650.84;;;-142.29;42.50
7748;BME280;3918;42.564;23.164;2023-04-29T13:30:56;-11650.84;;;-142.29;42.92
7748;BME280;3918;42.564;23.164;2023-04-29T13:33:23;-11650.84;;;-142.29;43.29
7748;BME280;3918;42.564;23.164;2023-04-29T13:35:51;-11650.84;;;-142.29;43.23
7748;BME280;3918;42.564;23.164;2023-04-29T13:38:18;-11650.84;;;-142.29;42.63
7748;BME280;3918;42.564;23.164;2023-04-29T13:40:44;-11650.84;;;-142.29;42.34
7748;BME280;3918;42.564;23.164;2023-04-29T13:43:11;-11650.84;;;-142.29;42.74
7748;BME280;3918;42.564;23.164;2023-04-29T13:45:38;-11650.84;;;-142.29;43.53
7748;BME280;3918;42.564;23.164;2023-04-29T13:48:05;-11650.84;;;-142.29;42.82
7748;BME280;3918;42.564;23.164;2023-04-29T13:50:32;-11650.84;;;-142.29;42.47
7748;BME280;3918;42.564;23.164;2023-04-29T13:53:00;-11650.84;;;-142.29;43.32
7748;BME280;3918;42.564;23.164;2023-04-29T13:55:27;-11650.84;;;-142.29;43.35
7748;BME280;3918;42.564;23.164;2023-04-29T13:57:54;-11650.84;;;-142.29;44.02
7748;BME280;3918;42.564;23.164;2023-04-29T14:00:21;-11650.84;;;-142.29;43.59
7748;BME280;3918;42.564;23.164;2023-04-29T14:02:47;-11650.84;;;-142.29;43.78
7748;BME280;3918;42.564;23.164;2023-04-29T14:05:14;-11650.84;;;-142.29;42.29
7748;BME280;3918;42.564;23.164;2023-04-29T14:07:41;-11650.84;;;-142.29;42.14
7748;BME280;3918;42.564;23.164;2023-04-29T14:10:09;-11650.84;;;-142.29;42.24
7748;BME280;3918;42.564;23.164;2023-04-29T14:12:36;-11650.84;;;-142.29;43.21
7748;BME280;3918;42.564;23.164;2023-04-29T14:15:04;-11650.84;;;-142.29;43.12
7748;BME280;3918;42.564;23.164;2023-04-29T14:17:31;-11650.84;;;-142.29;42.93
7748;BME280;3918;42.564;23.164;2023-04-29T14:19:58;-11650.84;;;-142.29;44.61
7748;BME280;3918;42.564;23.164;2023-04-29T14:22:24;-11650.84;;;-142.29;43.70
7748;BME280;3918;42.564;23.164;2023-04-29T14:24:52;-11650.84;;;-142.29;42.91
7748;BME280;3918;42.564;23.164;2023-04-29T14:27:20;-11650.84;;;-142.29;42.62
7748;BME280;3918;42.564;23.164;2023-04-29T14:29:47;-11650.84;;;-142.29;42.86
7748;BME280;3918;42.564;23.164;2023-04-29T14:32:14;-11650.84;;;-142.29;43.04
7748;BME280;3918;42.564;23.164;2023-04-29T14:34:40;-11650.84;;;-142.29;42.10
7748;BME280;3918;42.564;23.164;2023-04-29T14:37:07;-11650.84;;;-142.29;42.84
7748;BME280;3918;42.564;23.164;2023-04-29T14:39:34;-11650.84;;;-142.29;42.49
7748;BME280;3918;42.564;23.164;2023-04-29T14:42:01;-11650.84;;;-142.29;42.46
7748;BME280;3918;42.564;23.164;2023-04-29T14:44:29;-11650.84;;;-142.29;43.26
7748;BME280;3918;42.564;23.164;2023-04-29T14:46:56;-11650.84;;;-142.29;43.79
7748;BME280;3918;42.564;23.164;2023-04-29T14:49:23;-11650.84;;;-142.29;43.72
7748;BME280;3918;42.564;23.164;2023-04-29T14:51:50;-11650.84;;;-142.29;44.16
7748;BME280;3918;42.564;23.164;2023-04-29T14:54:17;-11650.84;;;-142.29;44.51
7748;BME280;3918;42.564;23.164;2023-04-29T14:56:44;-11650.84;;;-142.29;43.81
7748;BME280;3918;42.564;23.164;2023-04-29T14:59:10;-11650.84;;;-142.29;44.06
7748;BME280;3918;42.564;23.164;2023-04-29T15:01:39;-11650.84;;;-142.29;43.12
7748;BME280;3918;42.564;23.164;2023-04-29T15:04:05;-11650.84;;;-142.29;43.90
7748;BME280;3918;42.564;23.164;2023-04-29T15:06:32;-11650.84;;;-142.29;44.16
7748;BME280;3918;42.564;23.164;2023-04-29T15:08:59;-11650.84;;;-142.29;43.63
7748;BME280;3918;42.564;23.164;2023-04-29T15:11:26;-11650.84;;;-142.29;42.78
7748;BME280;3918;42.564;23.164;2023-04-29T15:13:53;-11650.84;;;-142.29;42.91
7748;BME280;3918;42.564;23.164;2023-04-29T15:16:20;-11650.84;;;-142.29;43.20
7748;BME280;3918;42.564;23.164;2023-04-29T15:18:48;-11650.84;;;-142.29;43.61
7748;BME280;3918;42.564;23.164;2023-04-29T15:21:15;-11650.84;;;-142.29;43.61
7748;BME280;3918;42.564;23.164;2023-04-29T15:23:42;-11650.84;;;-142.29;43.72
7748;BME280;3918;42.564;23.164;2023-04-29T15:26:09;-11650.84;;;-142.29;43.94
7748;BME280;3918;42.564;23.164;2023-04-29T15:28:35;-11650.84;;;-142.29;44.20
7748;BME280;3918;42.564;23.164;2023-04-29T15:31:02;-11650.84;;;-142.29;43.58
7748;BME280;3918;42.564;23.164;2023-04-29T15:33:29;-11650.84;;;-142.29;44.20
7748;BME280;3918;42.564;23.164;2023-04-29T15:35:59;-11650.84;;;-142.29;45.12
7748;BME280;3918;42.564;23.164;2023-04-29T15:38:25;-11650.84;;;-142.29;45.44
7748;BME280;3918;42.564;23.164;2023-04-29T15:40:53;-11650.84;;;-142.29;45.35
7748;BME280;3918;42.564;23.164;2023-04-29T15:43:25;-11650.84;;;-142.29;44.75
7748;BME280;3918;42.564;23.164;2023-04-29T15:45:51;-11650.84;;;-142.29;45.41
7748;BME280;3918;42.564;23.164;2023-04-29T15:48:18;-11650.84;;;-142.29;45.08
7748;BME280;3918;42.564;23.164;2023-04-29T15:50:45;-11650.84;;;-142.29;45.51
7748;BME280;3918;42.564;23.164;2023-04-29T15:53:13;-11650.84;;;-142.29;45.89
7748;BME280;3918;42.564;23.164;2023-04-29T15:55:40;-11650.84;;;-142.29;45.68
7748;BME280;3918;42.564;23.164;2023-04-29T15:58:07;-11650.84;;;-142.29;46.08
7748;BME280;3918;42.564;23.164;2023-04-29T16:00:34;-11650.84;;;-142.29;46.08
7748;BME280;3918;42.564;23.164;2023-04-29T16:03:01;-11650.84;;;-142.29;45.19
7748;BME280;3918;42.564;23.164;2023-04-29T16:05:28;-11650.84;;;-142.29;45.51
7748;BME280;3918;42.564;23.164;2023-04-29T16:07:56;-11650.84;;;-142.29;45.27
7748;BME280;3918;42.564;23.164;2023-04-29T16:10:24;-11650.84;;;-142.29;46.38
7748;BME280;3918;42.564;23.164;2023-04-29T16:12:50;-11650.84;;;-142.29;46.46
7748;BME280;3918;42.564;23.164;2023-04-29T16:15:17;-11650.84;;;-142.29;47.05
7748;BME280;3918;42.564;23.164;2023-04-29T16:17:44;-11650.84;;;-142.29;46.38
7748;BME280;3918;42.564;23.164;2023-04-29T16:20:11;-11650.84;;;-142.29;46.57
7748;BME280;3918;42.564;23.164;2023-04-29T16:22:38;-11650.84;;;-142.29;46.88
7748;BME280;3918;42.564;23.164;2023-04-29T16:25:05;-11650.84;;;-142.29;47.19
7748;BME280;3918;42.564;23.164;2023-04-29T16:27:33;-11650.84;;;-142.29;47.80
7748;BME280;3918;42.564;23.164;2023-04-29T16:30:00;-11650.84;;;-142.29;47.98
7748;BME280;3918;42.564;23.164;2023-04-29T16:32:28;-11650.84;;;-142.29;48.28
7748;BME280;3918;42.564;23.164;2023-04-29T16:34:55;-11650.84;;;-142.29;49.07
7748;BME280;3918;42.564;23.164;2023-04-29T16:37:22;-11650.84;;;-142.29;50.07
7748;BME280;3918;42.564;23.164;2023-04-29T16:39:49;-11650.84;;;-142.29;52.05
7748;BME280;3918;42.564;23.164;2023-04-29T16:42:16;-11650.84;;;-142.29;52.82
7748;BME280;3918;42.564;23.164;2023-04-29T16:44:45;-11650.84;;;-142.29;57.02
7748;BME280;3918;42.564;23.164;2023-04-29T16:47:12;-11650.84;;;-142.29;56.86